sensor_id;sensor_type;location;lat;lon;timestamp;P1;durP1;ratioP1;P2;durP2;ratioP2
59052;SDS011;44843;44.728;10.396;2024-02-28T00:01:00;22.55;;;10.90;;
59052;SDS011;44843;44.728;10.396;2024-02-28T00:03:25;24.92;;;10.27;;
59052;SDS011;44843;44.728;10.396;2024-02-28T00:05:51;19.10;;;9.55;;
59052;SDS011;44843;44.728;10.396;2024-02-28T00:08:16;18.52;;;10.00;;
59052;SDS011;44843;44.728;10.396;2024-02-28T00:10:42;20.48;;;11.18;;
59052;SDS011;44843;44.728;10.396;2024-02-28T00:13:07;22.50;;;10.60;;
59052;SDS011;44843;44.728;10.396;2024-02-28T00:15:32;20.73;;;10.40;;
59052;SDS011;44843;44.728;10.396;2024-02-28T00:17:57;21.35;;;11.30;;
59052;SDS011;44843;44.728;10.396;2024-02-28T00:20:23;19.98;;;9.93;;
59052;SDS011;44843;44.728;10.396;2024-02-28T00:22:52;21.17;;;10.82;;
59052;SDS011;44843;44.728;10.396;2024-02-28T00:25:17;17.00;;;9.32;;
59052;SDS011;44843;44.728;10.396;2024-02-28T00:27:42;20.15;;;9.88;;
59052;SDS011;44843;44.728;10.396;2024-02-28T00:30:08;21.10;;;9.63;;
59052;SDS011;44843;44.728;10.396;2024-02-28T00:32:33;19.10;;;9.93;;
59052;SDS011;44843;44.728;10.396;2024-02-28T00:34:58;19.63;;;9.75;;
59052;SDS011;44843;44.728;10.396;2024-02-28T00:37:24;18.25;;;9.20;;
59052;SDS011;44843;44.728;10.396;2024-02-28T00:39:50;17.95;;;9.07;;
59052;SDS011;44843;44.728;10.396;2024-02-28T00:42:16;20.90;;;10.45;;
59052;SDS011;44843;44.728;10.396;2024-02-28T00:44:41;18.55;;;9.63;;
59052;SDS011;44843;44.728;10.396;2024-02-28T00:47:07;17.63;;;9.10;;
59052;SDS011;44843;44.728;10.396;2024-02-28T00:49:33;18.85;;;9.60;;
59052;SDS011;44843;44.728;10.396;2024-02-28T00:51:58;20.42;;;9.55;;
59052;SDS011;44843;44.728;10.396;2024-02-28T00:54:23;19.88;;;10.45;;
59052;SDS011;44843;44.728;10.396;2024-02-28T00:56:50;19.35;;;10.00;;
59052;SDS011;44843;44.728;10.396;2024-02-28T00:59:15;22.63;;;10.63;;
59052;SDS011;44843;44.728;10.396;2024-02-28T01:01:40;22.73;;;11.70;;
59052;SDS011;44843;44.728;10.396;2024-02-28T01:04:06;21.70;;;11.18;;
59052;SDS011;44843;44.728;10.396;2024-02-28T01:06:32;20.75;;;10.18;;
59052;SDS011;44843;44.728;10.396;2024-02-28T01:08:57;20.20;;;10.55;;
59052;SDS011;44843;44.728;10.396;2024-02-28T01:11:23;19.52;;;9.48;;
59052;SDS011;44843;44.728;10.396;2024-02-28T01:13:48;20.02;;;10.02;;
59052;SDS011;44843;44.728;10.396;2024-02-28T01:16:13;17.63;;;9.93;;
59052;SDS011;44843;44.728;10.396;2024-02-28T01:18:39;17.13;;;9.77;;
59052;SDS011;44843;44.728;10.396;2024-02-28T01:21:04;17.63;;;9.77;;
59052;SDS011;44843;44.728;10.396;2024-02-28T01:23:29;20.50;;;10.88;;
59052;SDS011;44843;44.728;10.396;2024-02-28T01:25:54;20.70;;;10.60;;
59052;SDS011;44843;44.728;10.396;2024-02-28T01:28:19;17.15;;;9.35;;
59052;SDS011;44843;44.728;10.396;2024-02-28T01:30:45;21.45;;;12.07;;
59052;SDS011;44843;44.728;10.396;2024-02-28T01:33:10;17.60;;;9.60;;
59052;SDS011;44843;44.728;10.396;2024-02-28T01:35:37;21.40;;;10.20;;
59052;SDS011;44843;44.728;10.396;2024-02-28T01:38:02;22.65;;;10.90;;
59052;SDS011;44843;44.728;10.396;2024-02-28T01:40:28;22.23;;;9.85;;
59052;SDS011;44843;44.728;10.396;2024-02-28T01:42:53;19.40;;;10.50;;
59052;SDS011;44843;44.728;10.396;2024-02-28T01:45:18;20.52;;;10.65;;
59052;SDS011;44843;44.728;10.396;2024-02-28T01:47:43;21.17;;;9.90;;
59052;SDS011;44843;44.728;10.396;2024-02-28T01:50:09;22.30;;;10.60;;
59052;SDS011;44843;44.728;10.396;2024-02-28T01:52:35;19.85;;;10.43;;
59052;SDS011;44843;44.728;10.396;2024-02-28T01:55:00;18.60;;;9.95;;
59052;SDS011;44843;44.728;10.396;2024-02-28T01:57:26;17.88;;;9.77;;
59052;SDS011;44843;44.728;10.396;2024-02-28T01:59:52;22.05;;;10.73;;
59052;SDS011;44843;44.728;10.396;2024-02-28T02:02:17;17.95;;;10.30;;
59052;SDS011;44843;44.728;10.396;2024-02-28T02:04:43;17.63;;;9.45;;
59052;SDS011;44843;44.728;10.396;2024-02-28T02:07:08;18.10;;;9.98;;
59052;SDS011;44843;44.728;10.396;2024-02-28T02:09:34;18.23;;;9.52;;
59052;SDS011;44843;44.728;10.396;2024-02-28T02:11:59;17.52;;;10.55;;
59052;SDS011;44843;44.728;10.396;2024-02-28T02:14:24;19.30;;;10.40;;
59052;SDS011;44843;44.728;10.396;2024-02-28T02:16:50;18.17;;;10.95;;
59052;SDS011;44843;44.728;10.396;2024-02-28T02:19:15;19.38;;;9.63;;
59052;SDS011;44843;44.728;10.396;2024-02-28T02:21:41;18.25;;;10.52;;
59052;SDS011;44843;44.728;10.396;2024-02-28T02:24:09;22.35;;;10.00;;
59052;SDS011;44843;44.728;10.396;2024-02-28T02:26:34;23.95;;;10.50;;
59052;SDS011;44843;44.728;10.396;2024-02-28T02:28:59;19.38;;;10.40;;
59052;SDS011;44843;44.728;10.396;2024-02-28T02:31:25;17.90;;;9.85;;
59052;SDS011;44843;44.728;10.396;2024-02-28T02:33:50;18.88;;;10.55;;
59052;SDS011;44843;44.728;10.396;2024-02-28T02:36:15;20.63;;;11.02;;
59052;SDS011;44843;44.728;10.396;2024-02-28T02:38:41;18.40;;;10.05;;
59052;SDS011;44843;44.728;10.396;2024-02-28T02:41:06;23.13;;;11.55;;
59052;SDS011;44843;44.728;10.396;2024-02-28T02:43:31;17.15;;;10.13;;
59052;SDS011;44843;44.728;10.396;2024-02-28T02:45:56;22.23;;;11.63;;
59052;SDS011;44843;44.728;10.396;2024-02-28T02:48:22;22.98;;;11.30;;
59052;SDS011;44843;44.728;10.396;2024-02-28T02:50:47;22.90;;;11.32;;
59052;SDS011;44843;44.728;10.396;2024-02-28T02:53:12;22.27;;;11.48;;
59052;SDS011;44843;44.728;10.396;2024-02-28T02:55:38;20.50;;;10.65;;
59052;SDS011;44843;44.728;10.396;2024-02-28T02:58:03;24.75;;;12.45;;
59052;SDS011;44843;44.728;10.396;2024-02-28T03:00:28;24.27;;;11.38;;
59052;SDS011;44843;44.728;10.396;2024-02-28T03:02:54;21.15;;;11.20;;
59052;SDS011;44843;44.728;10.396;2024-02-28T03:05:19;20.45;;;11.13;;
59052;SDS011;44843;44.728;10.396;2024-02-28T03:07:44;20.23;;;10.43;;
59052;SDS011;44843;44.728;10.396;2024-02-28T03:10:09;21.58;;;11.60;;
59052;SDS011;44843;44.728;10.396;2024-02-28T03:12:35;19.73;;;10.70;;
59052;SDS011;44843;44.728;10.396;2024-02-28T03:15:00;24.98;;;11.48;;
59052;SDS011;44843;44.728;10.396;2024-02-28T03:17:26;20.98;;;10.48;;
59052;SDS011;44843;44.728;10.396;2024-02-28T03:19:51;24.95;;;11.65;;
59052;SDS011;44843;44.728;10.396;2024-02-28T03:22:16;20.45;;;11.07;;
59052;SDS011;44843;44.728;10.396;2024-02-28T03:24:41;20.27;;;11.13;;
59052;SDS011;44843;44.728;10.396;2024-02-28T03:27:07;21.95;;;10.63;;
59052;SDS011;44843;44.728;10.396;2024-02-28T03:29:32;19.80;;;10.52;;
59052;SDS011;44843;44.728;10.396;2024-02-28T03:31:58;17.92;;;10.05;;
59052;SDS011;44843;44.728;10.396;2024-02-28T03:34:23;19.17;;;9.88;;
59052;SDS011;44843;44.728;10.396;2024-02-28T03:36:48;16.90;;;9.73;;
59052;SDS011;44843;44.728;10.396;2024-02-28T03:39:13;18.48;;;10.35;;
59052;SDS011;44843;44.728;10.396;2024-02-28T03:41:39;16.08;;;8.82;;
59052;SDS011;44843;44.728;10.396;2024-02-28T03:44:04;14.32;;;8.27;;
59052;SDS011;44843;44.728;10.396;2024-02-28T03:46:29;13.63;;;8.52;;
59052;SDS011;44843;44.728;10.396;2024-02-28T03:48:55;12.60;;;8.32;;
59052;SDS011;44843;44.728;10.396;2024-02-28T03:51:20;13.70;;;7.63;;
59052;SDS011;44843;44.728;10.396;2024-02-28T03:53:45;10.10;;;7.55;;
59052;SDS011;44843;44.728;10.396;2024-02-28T03:56:11;16.77;;;7.75;;
59052;SDS011;44843;44.728;10.396;2024-02-28T03:58:36;17.48;;;7.53;;
59052;SDS011;44843;44.728;10.396;2024-02-28T04:01:03;13.88;;;7.43;;
59052;SDS011;44843;44.728;10.396;2024-02-28T04:03:28;13.75;;;7.35;;
59052;SDS011;44843;44.728;10.396;2024-02-28T04:05:53;11.35;;;7.43;;
59052;SDS011;44843;44.728;10.396;2024-02-28T04:08:19;12.70;;;6.97;;
59052;SDS011;44843;44.728;10.396;2024-02-28T04:10:44;17.00;;;7.03;;
59052;SDS011;44843;44.728;10.396;2024-02-28T04:13:09;11.35;;;6.35;;
59052;SDS011;44843;44.728;10.396;2024-02-28T04:15:34;9.52;;;6.55;;
59052;SDS011;44843;44.728;10.396;2024-02-28T04:18:00;11.30;;;7.18;;
59052;SDS011;44843;44.728;10.396;2024-02-28T04:20:25;10.55;;;6.80;;
59052;SDS011;44843;44.728;10.396;2024-02-28T04:22:51;13.85;;;7.25;;
59052;SDS011;44843;44.728;10.396;2024-02-28T04:25:16;12.32;;;6.32;;
59052;SDS011;44843;44.728;10.396;2024-02-28T04:27:41;13.23;;;6.40;;
59052;SDS011;44843;44.728;10.396;2024-02-28T04:30:07;14.40;;;7.38;;
59052;SDS011;44843;44.728;10.396;2024-02-28T04:32:32;12.75;;;7.47;;
59052;SDS011;44843;44.728;10.396;2024-02-28T04:34:57;19.90;;;8.68;;
59052;SDS011;44843;44.728;10.396;2024-02-28T04:37:22;19.05;;;9.95;;
59052;SDS011;44843;44.728;10.396;2024-02-28T04:39:48;18.83;;;8.75;;
59052;SDS011;44843;44.728;10.396;2024-02-28T04:42:13;15.95;;;8.60;;
59052;SDS011;44843;44.728;10.396;2024-02-28T04:44:39;13.07;;;8.00;;
59052;SDS011;44843;44.728;10.396;2024-02-28T04:47:04;15.85;;;9.63;;
59052;SDS011;44843;44.728;10.396;2024-02-28T04:49:30;19.13;;;8.82;;
59052;SDS011;44843;44.728;10.396;2024-02-28T04:51:55;16.63;;;9.13;;
59052;SDS011;44843;44.728;10.396;2024-02-28T04:54:20;15.35;;;8.00;;
59052;SDS011;44843;44.728;10.396;2024-02-28T04:56:45;20.52;;;9.20;;
59052;SDS011;44843;44.728;10.396;2024-02-28T04:59:11;18.98;;;8.40;;
59052;SDS011;44843;44.728;10.396;2024-02-28T05:01:37;15.32;;;7.28;;
59052;SDS011;44843;44.728;10.396;2024-02-28T05:04:05;18.27;;;7.93;;
59052;SDS011;44843;44.728;10.396;2024-02-28T05:06:31;15.30;;;7.60;;
59052;SDS011;44843;44.728;10.396;2024-02-28T05:08:56;17.55;;;7.85;;
59052;SDS011;44843;44.728;10.396;2024-02-28T05:11:21;19.98;;;8.32;;
59052;SDS011;44843;44.728;10.396;2024-02-28T05:13:46;18.85;;;8.27;;
59052;SDS011;44843;44.728;10.396;2024-02-28T05:16:12;18.38;;;7.65;;
59052;SDS011;44843;44.728;10.396;2024-02-28T05:18:38;18.65;;;7.72;;
59052;SDS011;44843;44.728;10.396;2024-02-28T05:21:03;16.55;;;7.78;;
59052;SDS011;44843;44.728;10.396;2024-02-28T05:23:28;17.75;;;7.60;;
59052;SDS011;44843;44.728;10.396;2024-02-28T05:25:54;17.40;;;7.47;;
59052;SDS011;44843;44.728;10.396;2024-02-28T05:28:19;18.25;;;7.15;;
59052;SDS011;44843;44.728;10.396;2024-02-28T05:30:44;17.00;;;6.55;;
59052;SDS011;44843;44.728;10.396;2024-02-28T05:33:09;19.02;;;7.00;;
59052;SDS011;44843;44.728;10.396;2024-02-28T05:35:36;16.52;;;7.07;;
59052;SDS011;44843;44.728;10.396;2024-02-28T05:38:01;15.98;;;6.32;;
59052;SDS011;44843;44.728;10.396;2024-02-28T05:40:27;17.42;;;6.53;;
59052;SDS011;44843;44.728;10.396;2024-02-28T05:42:53;21.08;;;6.40;;
59052;SDS011;44843;44.728;10.396;2024-02-28T05:45:18;16.75;;;6.93;;
59052;SDS011;44843;44.728;10.396;2024-02-28T05:47:43;12.18;;;6.30;;
59052;SDS011;44843;44.728;10.396;2024-02-28T05:50:09;16.05;;;6.20;;
59052;SDS011;44843;44.728;10.396;2024-02-28T05:52:35;18.13;;;7.47;;
59052;SDS011;44843;44.728;10.396;2024-02-28T05:55:00;19.77;;;6.75;;
59052;SDS011;44843;44.728;10.396;2024-02-28T05:57:25;13.63;;;6.43;;
59052;SDS011;44843;44.728;10.396;2024-02-28T05:59:50;11.48;;;5.00;;
59052;SDS011;44843;44.728;10.396;2024-02-28T06:02:16;15.93;;;6.13;;
59052;SDS011;44843;44.728;10.396;2024-02-28T06:04:41;11.40;;;4.63;;
59052;SDS011;44843;44.728;10.396;2024-02-28T06:07:06;13.73;;;6.28;;
59052;SDS011;44843;44.728;10.396;2024-02-28T06:09:31;14.23;;;5.65;;
59052;SDS011;44843;44.728;10.396;2024-02-28T06:11:57;11.02;;;4.97;;
59052;SDS011;44843;44.728;10.396;2024-02-28T06:14:22;15.63;;;6.00;;
59052;SDS011;44843;44.728;10.396;2024-02-28T06:16:47;13.88;;;5.97;;
59052;SDS011;44843;44.728;10.396;2024-02-28T06:19:12;10.68;;;5.15;;
59052;SDS011;44843;44.728;10.396;2024-02-28T06:21:38;14.88;;;5.38;;
59052;SDS011;44843;44.728;10.396;2024-02-28T06:24:03;14.90;;;5.60;;
59052;SDS011;44843;44.728;10.396;2024-02-28T06:26:29;11.18;;;5.85;;
59052;SDS011;44843;44.728;10.396;2024-02-28T06:28:56;14.75;;;5.32;;
59052;SDS011;44843;44.728;10.396;2024-02-28T06:31:26;13.15;;;5.05;;
59052;SDS011;44843;44.728;10.396;2024-02-28T06:33:51;13.63;;;6.00;;
59052;SDS011;44843;44.728;10.396;2024-02-28T06:36:16;12.05;;;6.03;;
59052;SDS011;44843;44.728;10.396;2024-02-28T06:38:41;16.48;;;6.07;;
59052;SDS011;44843;44.728;10.396;2024-02-28T06:41:07;18.08;;;6.97;;
59052;SDS011;44843;44.728;10.396;2024-02-28T06:43:35;11.75;;;5.05;;
59052;SDS011;44843;44.728;10.396;2024-02-28T06:46:01;14.00;;;6.70;;
59052;SDS011;44843;44.728;10.396;2024-02-28T06:48:27;15.95;;;6.35;;
59052;SDS011;44843;44.728;10.396;2024-02-28T06:50:52;11.63;;;5.07;;
59052;SDS011;44843;44.728;10.396;2024-02-28T06:53:17;15.35;;;6.60;;
59052;SDS011;44843;44.728;10.396;2024-02-28T06:55:43;10.60;;;5.50;;
59052;SDS011;44843;44.728;10.396;2024-02-28T06:58:09;13.40;;;6.30;;
59052;SDS011;44843;44.728;10.396;2024-02-28T07:00:34;14.68;;;5.65;;
59052;SDS011;44843;44.728;10.396;2024-02-28T07:02:59;15.75;;;5.97;;
59052;SDS011;44843;44.728;10.396;2024-02-28T07:05:25;16.25;;;6.05;;
59052;SDS011;44843;44.728;10.396;2024-02-28T07:07:50;14.05;;;6.05;;
59052;SDS011;44843;44.728;10.396;2024-02-28T07:10:15;14.05;;;5.75;;
59052;SDS011;44843;44.728;10.396;2024-02-28T07:12:40;11.68;;;5.95;;
59052;SDS011;44843;44.728;10.396;2024-02-28T07:15:06;12.23;;;5.65;;
59052;SDS011;44843;44.728;10.396;2024-02-28T07:17:31;14.63;;;6.07;;
59052;SDS011;44843;44.728;10.396;2024-02-28T07:19:56;12.98;;;5.13;;
59052;SDS011;44843;44.728;10.396;2024-02-28T07:22:21;11.32;;;5.13;;
59052;SDS011;44843;44.728;10.396;2024-02-28T07:24:47;12.95;;;5.18;;
59052;SDS011;44843;44.728;10.396;2024-02-28T07:27:12;10.43;;;5.50;;
59052;SDS011;44843;44.728;10.396;2024-02-28T07:29:37;12.30;;;5.63;;
59052;SDS011;44843;44.728;10.396;2024-02-28T07:32:03;10.77;;;5.43;;
59052;SDS011;44843;44.728;10.396;2024-02-28T07:34:28;12.40;;;5.57;;
59052;SDS011;44843;44.728;10.396;2024-02-28T07:36:53;13.10;;;5.68;;
59052;SDS011;44843;44.728;10.396;2024-02-28T07:39:19;10.13;;;5.70;;
59052;SDS011;44843;44.728;10.396;2024-02-28T07:41:45;11.23;;;4.80;;
59052;SDS011;44843;44.728;10.396;2024-02-28T07:44:11;15.40;;;5.70;;
59052;SDS011;44843;44.728;10.396;2024-02-28T07:46:36;9.52;;;5.70;;
59052;SDS011;44843;44.728;10.396;2024-02-28T07:49:01;8.63;;;5.43;;
59052;SDS011;44843;44.728;10.396;2024-02-28T07:51:27;13.68;;;5.43;;
59052;SDS011;44843;44.728;10.396;2024-02-28T07:53:52;11.88;;;4.72;;
59052;SDS011;44843;44.728;10.396;2024-02-28T07:56:18;10.93;;;4.80;;
59052;SDS011;44843;44.728;10.396;2024-02-28T07:58:44;11.18;;;5.40;;
59052;SDS011;44843;44.728;10.396;2024-02-28T08:01:10;7.15;;;4.72;;
59052;SDS011;44843;44.728;10.396;2024-02-28T08:03:35;7.47;;;4.93;;
59052;SDS011;44843;44.728;10.396;2024-02-28T08:06:00;7.43;;;4.63;;
59052;SDS011;44843;44.728;10.396;2024-02-28T08:08:25;8.02;;;4.75;;
59052;SDS011;44843;44.728;10.396;2024-02-28T08:10:51;9.10;;;4.93;;
59052;SDS011;44843;44.728;10.396;2024-02-28T08:13:18;8.38;;;4.70;;
59052;SDS011;44843;44.728;10.396;2024-02-28T08:15:43;10.43;;;4.57;;
59052;SDS011;44843;44.728;10.396;2024-02-28T08:18:08;10.45;;;5.15;;
59052;SDS011;44843;44.728;10.396;2024-02-28T08:20:36;7.88;;;4.60;;
59052;SDS011;44843;44.728;10.396;2024-02-28T08:23:02;8.25;;;4.68;;
59052;SDS011;44843;44.728;10.396;2024-02-28T08:25:28;11.60;;;3.97;;
59052;SDS011;44843;44.728;10.396;2024-02-28T08:27:53;9.95;;;4.03;;
59052;SDS011;44843;44.728;10.396;2024-02-28T08:30:18;11.20;;;4.22;;
59052;SDS011;44843;44.728;10.396;2024-02-28T08:32:44;10.63;;;4.43;;
59052;SDS011;44843;44.728;10.396;2024-02-28T08:35:09;11.80;;;4.35;;
59052;SDS011;44843;44.728;10.396;2024-02-28T08:37:35;7.65;;;3.83;;
59052;SDS011;44843;44.728;10.396;2024-02-28T08:40:01;6.18;;;3.80;;
59052;SDS011;44843;44.728;10.396;2024-02-28T08:42:26;13.77;;;4.30;;
59052;SDS011;44843;44.728;10.396;2024-02-28T08:44:52;10.90;;;3.83;;
59052;SDS011;44843;44.728;10.396;2024-02-28T08:47:17;15.02;;;4.57;;
59052;SDS011;44843;44.728;10.396;2024-02-28T08:49:43;7.03;;;3.83;;
59052;SDS011;44843;44.728;10.396;2024-02-28T08:52:09;10.75;;;5.28;;
59052;SDS011;44843;44.728;10.396;2024-02-28T08:54:34;11.70;;;4.30;;
59052;SDS011;44843;44.728;10.396;2024-02-28T08:56:59;6.80;;;3.83;;
59052;SDS011;44843;44.728;10.396;2024-02-28T08:59:25;10.32;;;4.65;;
59052;SDS011;44843;44.728;10.396;2024-02-28T09:01:50;13.63;;;4.93;;
59052;SDS011;44843;44.728;10.396;2024-02-28T09:04:15;8.65;;;4.47;;
59052;SDS011;44843;44.728;10.396;2024-02-28T09:06:41;15.55;;;4.55;;
59052;SDS011;44843;44.728;10.396;2024-02-28T09:09:06;12.18;;;4.47;;
59052;SDS011;44843;44.728;10.396;2024-02-28T09:11:31;11.30;;;4.60;;
59052;SDS011;44843;44.728;10.396;2024-02-28T09:13:56;12.25;;;4.63;;
59052;SDS011;44843;44.728;10.396;2024-02-28T09:16:22;16.15;;;4.50;;
59052;SDS011;44843;44.728;10.396;2024-02-28T09:18:47;11.20;;;4.63;;
59052;SDS011;44843;44.728;10.396;2024-02-28T09:21:12;10.68;;;5.15;;
59052;SDS011;44843;44.728;10.396;2024-02-28T09:23:37;14.13;;;5.55;;
59052;SDS011;44843;44.728;10.396;2024-02-28T09:26:05;9.35;;;4.55;;
59052;SDS011;44843;44.728;10.396;2024-02-28T09:28:31;10.85;;;4.30;;
59052;SDS011;44843;44.728;10.396;2024-02-28T09:30:56;16.00;;;4.45;;
59052;SDS011;44843;44.728;10.396;2024-02-28T09:33:22;15.60;;;5.05;;
59052;SDS011;44843;44.728;10.396;2024-02-28T09:35:47;9.05;;;4.53;;
59052;SDS011;44843;44.728;10.396;2024-02-28T09:38:12;9.38;;;4.57;;
59052;SDS011;44843;44.728;10.396;2024-02-28T09:40:38;14.52;;;4.70;;
59052;SDS011;44843;44.728;10.396;2024-02-28T09:43:03;13.52;;;5.00;;
59052;SDS011;44843;44.728;10.396;2024-02-28T09:45:29;17.83;;;5.57;;
59052;SDS011;44843;44.728;10.396;2024-02-28T09:47:58;18.02;;;4.85;;
59052;SDS011;44843;44.728;10.396;2024-02-28T09:50:25;9.90;;;4.75;;
59052;SDS011;44843;44.728;10.396;2024-02-28T09:52:50;13.88;;;5.90;;
59052;SDS011;44843;44.728;10.396;2024-02-28T09:55:15;10.90;;;5.80;;
59052;SDS011;44843;44.728;10.396;2024-02-28T09:57:41;14.13;;;5.93;;
59052;SDS011;44843;44.728;10.396;2024-02-28T10:00:06;14.27;;;6.50;;
59052;SDS011;44843;44.728;10.396;2024-02-28T10:02:32;12.15;;;6.72;;
59052;SDS011;44843;44.728;10.396;2024-02-28T10:04:59;15.50;;;6.78;;
59052;SDS011;44843;44.728;10.396;2024-02-28T10:07:25;16.02;;;6.85;;
59052;SDS011;44843;44.728;10.396;2024-02-28T10:09:50;13.95;;;6.70;;
59052;SDS011;44843;44.728;10.396;2024-02-28T10:12:15;11.30;;;6.20;;
59052;SDS011;44843;44.728;10.396;2024-02-28T10:14:41;15.90;;;5.93;;
59052;SDS011;44843;44.728;10.396;2024-02-28T10:17:06;9.90;;;6.53;;
59052;SDS011;44843;44.728;10.396;2024-02-28T10:19:33;11.80;;;7.65;;
59052;SDS011;44843;44.728;10.396;2024-02-28T10:21:58;15.90;;;7.07;;
59052;SDS011;44843;44.728;10.396;2024-02-28T10:24:24;15.20;;;8.45;;
59052;SDS011;44843;44.728;10.396;2024-02-28T10:26:49;17.30;;;7.72;;
59052;SDS011;44843;44.728;10.396;2024-02-28T10:29:23;14.93;;;7.72;;
59052;SDS011;44843;44.728;10.396;2024-02-28T10:31:49;15.43;;;8.70;;
59052;SDS011;44843;44.728;10.396;2024-02-28T10:34:16;15.75;;;7.60;;
59052;SDS011;44843;44.728;10.396;2024-02-28T10:36:41;9.52;;;6.80;;
59052;SDS011;44843;44.728;10.396;2024-02-28T10:39:08;11.70;;;7.60;;
59052;SDS011;44843;44.728;10.396;2024-02-28T10:41:34;12.75;;;7.40;;
59052;SDS011;44843;44.728;10.396;2024-02-28T10:44:01;14.35;;;7.90;;
